Time;durP1;ratioP1;P1;durP2;ratioP2;P2;SDS_P1;SDS_P2;PMS_P1;PMS_P2;Temp;Humidity;BMP_temperature;BMP_pressure;BME280_temperature;BME280_humidity;BME280_pressure;Samples;Min_cycle;Max_cycle;Signal;HPM_P1;HPM_P2
2023/09/28 00:01:40;;;;;;;3.93;3.43;;;17.10;99.90;;;17.59;84.47;100659.38;4912589;29;20673;-68
2023/09/28 00:04:07;;;;;;;3.50;3.13;;;17.20;99.90;;;17.61;84.89;100659.25;4911957;29;20789;-70
2023/09/28 00:06:34;;;;;;;3.60;2.77;;;17.20;99.90;;;17.67;84.67;100658.63;4911612;29;20720;-69
2023/09/28 00:09:02;;;;;;;4.20;3.10;;;17.20;99.90;;;17.68;84.27;100655.00;4913204;29;20692;-68
2023/09/28 00:11:29;;;;;;;3.30;3.00;;;17.20;99.90;;;17.68;84.70;100652.34;4889822;29;20644;-69
2023/09/28 00:13:56;;;;;;;4.93;3.93;;;17.20;99.90;;;17.70;84.83;100664.41;4892199;29;20627;-69
2023/09/28 00:16:23;;;;;;;6.67;4.10;;;17.20;99.90;;;17.70;85.37;100667.06;4913685;29;20637;-70
2023/09/28 00:18:50;;;;;;;5.93;4.10;;;17.20;99.90;;;17.72;85.21;100662.44;4910994;29;20622;-68
2023/09/28 00:21:17;;;;;;;3.77;3.30;;;17.30;99.90;;;17.77;85.09;100654.91;4929213;29;21206;-69
2023/09/28 00:23:44;;;;;;;4.23;3.70;;;17.30;99.90;;;17.78;85.39;100656.53;4927158;29;20718;-69
2023/09/28 00:26:12;;;;;;;4.40;4.00;;;17.40;99.90;;;17.80;85.45;100659.84;4929578;29;20657;-69
2023/09/28 00:28:39;;;;;;;6.10;4.27;;;17.40;99.90;;;17.82;85.41;100670.28;4911733;29;20634;-68
2023/09/28 00:31:06;;;;;;;4.40;3.90;;;17.40;99.90;;;17.88;85.39;100668.81;4914084;29;20628;-68
2023/09/28 00:33:33;;;;;;;6.73;4.43;;;17.50;99.90;;;17.89;85.60;100667.84;4912755;29;20673;-69
2023/09/28 00:36:00;;;;;;;3.73;3.43;;;17.50;99.90;;;17.90;85.62;100670.31;4914880;29;21118;-67
2023/09/28 00:38:27;;;;;;;5.20;3.93;;;17.50;99.90;;;17.87;85.66;100665.34;4913837;29;20678;-69
2023/09/28 00:40:54;;;;;;;7.80;4.77;;;17.50;99.90;;;17.87;85.83;100669.81;4912160;29;21201;-69
2023/09/28 00:43:28;;;;;;;3.60;3.30;;;17.40;99.90;;;17.87;85.85;100665.34;4928891;29;20630;-69
2023/09/28 00:45:55;;;;;;;5.27;3.50;;;17.50;99.90;;;17.85;85.78;100664.66;4916742;29;20680;-69
2023/09/28 00:48:22;;;;;;;3.47;3.17;;;17.40;99.90;;;17.80;85.99;100656.41;4909326;29;20650;-69
2023/09/28 00:50:50;;;;;;;3.80;3.50;;;17.40;99.90;;;17.75;86.10;100656.88;4908693;29;20630;-69
2023/09/28 00:53:21;;;;;;;3.53;3.20;;;17.30;99.90;;;17.69;86.51;100648.75;4909452;29;20677;-69
2023/09/28 00:55:48;;;;;;;4.57;3.40;;;17.30;99.90;;;17.66;86.54;100644.59;4908153;29;20713;-69
2023/09/28 00:58:16;;;;;;;3.73;3.37;;;17.20;99.90;;;17.65;86.74;100631.56;4912850;29;20685;-67
2023/09/28 01:00:43;;;;;;;3.77;3.40;;;17.20;99.90;;;17.62;87.00;100640.63;4915321;29;21195;-69
2023/09/28 01:03:11;;;;;;;5.83;4.30;;;17.20;99.90;;;17.62;87.33;100655.63;4928836;29;20642;-69
2023/09/28 01:05:40;;;;;;;6.93;3.80;;;17.20;99.90;;;17.62;87.37;100652.97;4914569;29;20669;-67
2023/09/28 01:08:18;;;;;;;5.50;4.23;;;17.20;99.90;;;17.65;87.41;100655.31;4905473;29;20655;-69
2023/09/28 01:10:45;;;;;;;4.17;3.77;;;17.20;99.90;;;17.69;87.48;100662.78;4908717;29;20650;-69
2023/09/28 01:13:20;;;;;;;8.40;4.67;;;17.20;99.90;;;17.72;87.49;100661.63;4928465;29;21045;-69
2023/09/28 01:15:49;;;;;;;4.37;3.90;;;17.30;99.90;;;17.75;87.22;100659.50;4903813;29;20662;-69
2023/09/28 01:18:19;;;;;;;4.37;3.97;;;17.30;99.90;;;17.77;87.10;100673.38;4927450;29;20630;-69
2023/09/28 01:20:51;;;;;;;6.07;4.27;;;17.30;99.90;;;17.81;86.83;100671.25;4912116;29;20634;-66
2023/09/28 01:23:19;;;;;;;4.60;3.20;;;17.30;99.90;;;17.78;87.00;100661.81;4922738;29;20661;-69
2023/09/28 01:25:49;;;;;;;4.20;3.60;;;17.40;99.90;;;17.74;86.96;100659.66;4912901;29;20650;-68
2023/09/28 01:28:17;;;;;;;3.47;2.87;;;17.30;99.90;;;17.70;87.11;100661.78;4914235;29;21258;-68
2023/09/28 01:30:46;;;;;;;3.40;3.10;;;17.30;99.90;;;17.69;87.19;100660.13;4906798;29;21016;-69
2023/09/28 01:33:13;;;;;;;4.80;4.10;;;17.30;99.90;;;17.64;87.26;100653.66;4926243;29;20665;-69
2023/09/28 01:35:40;;;;;;;4.97;4.10;;;17.20;99.90;;;17.61;87.51;100654.78;4914313;29;20693;-68
2023/09/28 01:38:10;;;;;;;5.07;3.77;;;17.20;99.90;;;17.60;87.90;100645.22;4896858;29;20647;-69
2023/09/28 01:40:38;;;;;;;6.13;3.40;;;17.20;99.90;;;17.59;87.94;100650.66;4929348;29;20725;-70
2023/09/28 01:43:05;;;;;;;8.53;4.10;;;17.20;99.90;;;17.57;88.26;100644.69;4927799;29;20640;-68
2023/09/28 01:45:33;;;;;;;4.10;3.57;;;17.20;99.90;;;17.56;88.72;100653.59;4913119;29;20649;-71
2023/09/28 01:48:02;;;;;;;5.73;4.17;;;17.10;99.90;;;17.58;88.85;100646.34;4914510;29;20680;-69
2023/09/28 01:50:31;;;;;;;5.57;4.33;;;17.20;99.90;;;17.56;88.92;100650.97;4895688;29;21016;-69
2023/09/28 01:52:58;;;;;;;6.70;5.60;;;17.10;99.90;;;17.55;89.07;100655.41;4912379;29;20725;-67
2023/09/28 01:55:25;;;;;;;5.73;4.97;;;17.10;99.90;;;17.57;89.19;100655.25;4912067;29;21109;-70
2023/09/28 01:57:52;;;;;;;6.30;4.97;;;17.10;99.90;;;17.58;89.24;100660.38;4914548;29;20649;-68
2023/09/28 02:00:20;;;;;;;8.07;5.50;;;17.10;99.90;;;17.61;89.25;100662.69;4912690;29;20646;-71
2023/09/28 02:02:50;;;;;;;7.03;5.40;;;17.20;99.90;;;17.65;88.83;100666.69;4912698;29;20633;-68
2023/09/28 02:05:32;;;;;;;5.43;4.83;;;17.20;99.90;;;17.68;88.80;100668.19;4910896;29;20652;-69
2023/09/28 02:08:00;;;;;;;8.33;5.47;;;17.20;99.90;;;17.70;88.85;100671.50;4903791;29;21085;-68
2023/09/28 02:10:28;;;;;;;5.50;4.23;;;17.30;99.90;;;17.70;88.84;100674.97;4905561;29;20665;-69
2023/09/28 02:12:57;;;;;;;6.57;4.10;;;17.30;99.90;;;17.70;88.94;100680.25;4922711;29;20673;-70
2023/09/28 02:15:25;;;;;;;3.77;3.47;;;17.30;99.90;;;17.69;88.70;100667.22;4925407;29;20756;-69
2023/09/28 02:17:52;;;;;;;3.43;3.20;;;17.30;99.90;;;17.62;88.70;100667.00;4928181;29;20654;-68
2023/09/28 02:20:22;;;;;;;4.63;3.50;;;17.20;99.90;;;17.58;88.79;100660.38;4909997;29;20754;-69
2023/09/28 02:22:52;;;;;;;3.73;3.40;;;17.20;99.90;;;17.54;88.83;100643.22;4926119;29;21617;-69
2023/09/28 02:25:23;;;;;;;3.77;3.40;;;17.10;99.90;;;17.49;89.35;100645.44;4904885;29;20638;-69
2023/09/28 02:27:52;;;;;;;4.33;3.87;;;17.10;99.90;;;17.43;89.64;100645.22;4928559;29;20662;-68
2023/09/28 02:30:22;;;;;;;8.23;5.80;;;17.00;99.90;;;17.36;90.44;100689.84;4925625;29;20653;-69
2023/09/28 02:32:51;;;;;;;5.23;4.50;;;17.00;99.90;;;17.37;90.94;100698.59;4910262;29;21361;-68
2023/09/28 02:35:19;;;;;;;5.63;3.20;;;16.90;99.90;;;17.41;91.00;100695.50;4904877;29;20632;-68
2023/09/28 02:37:48;;;;;;;4.40;4.00;;;17.00;99.90;;;17.42;90.71;100685.78;4926163;29;21210;-68
2023/09/28 02:40:17;;;;;;;3.73;3.20;;;17.00;99.90;;;17.43;90.77;100685.63;4925342;29;20637;-68
2023/09/28 02:42:48;;;;;;;4.27;3.87;;;17.00;99.90;;;17.42;90.62;100693.69;4898083;29;20745;-67
2023/09/28 02:45:15;;;;;;;6.00;4.70;;;17.00;99.90;;;17.41;90.62;100689.41;4924237;29;20645;-68
2023/09/28 02:47:45;;;;;;;5.67;4.43;;;17.00;99.90;;;17.41;90.82;100689.41;4913655;29;20626;-69
2023/09/28 02:50:16;;;;;;;3.57;3.27;;;17.00;99.90;;;17.45;90.53;100690.75;4913136;29;20626;-69
2023/09/28 02:52:48;;;;;;;3.53;3.20;;;17.00;99.90;;;17.40;90.51;100696.47;4910295;29;20665;-69
2023/09/28 02:55:17;;;;;;;3.67;3.37;;;17.00;99.90;;;17.37;90.55;100672.22;4910173;29;20658;-69
2023/09/28 02:57:45;;;;;;;3.97;3.57;;;17.00;99.90;;;17.35;90.85;100664.47;4905458;29;20640;-68
2023/09/28 03:00:32;;;;;;;6.27;4.43;;;17.00;99.90;;;17.37;91.20;100686.25;4901498;29;20627;-68
2023/09/28 03:03:03;;;;;;;5.03;3.37;;;17.00;99.90;;;17.43;90.69;100695.34;4912299;29;21032;-69
2023/09/28 03:05:30;;;;;;;5.43;4.57;;;17.00;99.90;;;17.43;90.68;100690.06;4905482;29;20748;-68
2023/09/28 03:07:58;;;;;;;6.17;4.70;;;17.00;99.90;;;17.43;90.65;100692.69;4911506;29;20630;-67
2023/09/28 03:10:26;;;;;;;5.57;4.20;;;17.00;99.90;;;17.44;90.96;100702.28;4927311;29;20709;-70
2023/09/28 03:12:56;;;;;;;7.23;4.90;;;17.00;99.90;;;17.45;90.83;100696.84;4912873;29;20714;-70
2023/09/28 03:15:24;;;;;;;5.10;4.53;;;17.00;99.90;;;17.49;90.65;100705.28;4912723;29;20717;-70
2023/09/28 03:17:51;;;;;;;5.60;3.97;;;17.10;99.90;;;17.49;90.58;100707.91;4892546;29;20673;-70
2023/09/28 03:20:19;;;;;;;5.13;4.57;;;17.10;99.90;;;17.51;90.47;100713.91;4912870;29;21080;-68
2023/09/28 03:22:49;;;;;;;5.10;4.30;;;17.10;99.90;;;17.53;90.15;100707.50;4899861;29;20630;-68
2023/09/28 03:25:20;;;;;;;5.17;3.87;;;17.10;99.90;;;17.53;90.39;100709.28;4913565;29;21054;-68
2023/09/28 03:27:53;;;;;;;3.57;3.27;;;17.10;99.90;;;17.55;90.17;100709.97;4916427;29;20673;-66
2023/09/28 03:30:25;;;;;;;4.90;4.40;;;17.10;99.90;;;17.52;90.25;100707.66;4929035;29;20994;-69
2023/09/28 03:32:53;;;;;;;3.47;3.20;;;17.10;99.90;;;17.52;90.22;100712.94;4910393;29;20670;-68
2023/09/28 03:35:20;;;;;;;5.97;3.80;;;17.10;99.90;;;17.42;90.19;100707.69;4909444;29;20638;-70
2023/09/28 03:37:48;;;;;;;6.77;4.10;;;17.00;99.90;;;17.40;90.69;100712.28;4910352;29;20666;-69
2023/09/28 03:40:16;;;;;;;5.70;3.87;;;17.00;99.90;;;17.39;90.82;100707.19;4925238;29;20637;-68
2023/09/28 03:42:49;;;;;;;5.30;4.20;;;17.00;99.90;;;17.40;90.96;100704.38;4925679;29;20639;-67
2023/09/28 03:45:20;;;;;;;5.37;3.70;;;17.00;99.90;;;17.38;91.41;100701.06;4914437;29;20712;-69
2023/09/28 03:47:53;;;;;;;7.13;4.70;;;17.00;99.90;;;17.41;91.40;100703.41;4916049;29;20642;-69
2023/09/28 03:50:22;;;;;;;5.13;4.17;;;17.00;99.90;;;17.42;91.49;100704.25;4911479;29;20691;-68
2023/09/28 03:52:50;;;;;;;4.43;4.00;;;17.00;99.90;;;17.43;91.37;100695.34;4916207;29;20670;-69
2023/09/28 03:55:21;;;;;;;11.23;4.93;;;17.00;99.90;;;17.42;91.57;100697.13;4913664;29;21070;-69
2023/09/28 03:57:48;;;;;;;4.93;4.40;;;17.00;99.90;;;17.45;91.87;100706.56;4928656;29;20646;-69
2023/09/28 04:00:18;;;;;;;11.27;5.30;;;17.00;99.90;;;17.46;92.06;100702.97;4930294;29;21054;-69
2023/09/28 04:02:52;;;;;;;6.10;4.60;;;17.00;99.90;;;17.47;91.79;100699.31;4912436;29;20701;-69
2023/09/28 04:05:23;;;;;;;4.83;4.33;;;17.10;99.90;;;17.48;91.33;100704.44;4930127;29;20644;-68
2023/09/28 04:07:51;;;;;;;5.47;4.47;;;17.10;99.90;;;17.43;91.69;100695.34;4915805;29;20634;-69
2023/09/28 04:10:19;;;;;;;5.13;4.40;;;17.00;99.90;;;17.41;92.03;100697.31;4911407;29;20656;-68
2023/09/28 04:12:50;;;;;;;6.00;4.83;;;17.00;99.90;;;17.43;92.05;100697.97;4925624;29;20689;-69
2023/09/28 04:15:17;;;;;;;4.77;3.50;;;17.00;99.90;;;17.39;92.13;100697.47;4914055;29;20709;-69
2023/09/28 04:17:44;;;;;;;6.97;5.40;;;17.00;99.90;;;17.36;92.46;100689.00;4914677;29;20665;-68
2023/09/28 04:20:12;;;;;;;5.43;4.90;;;17.00;99.90;;;17.33;92.37;100687.53;4912655;29;20657;-68
2023/09/28 04:22:39;;;;;;;10.10;5.90;;;16.90;99.90;;;17.35;92.72;100690.84;4913932;29;20696;-70
2023/09/28 04:25:07;;;;;;;8.17;5.07;;;16.90;99.90;;;17.34;92.66;100693.59;4915018;29;21017;-66
2023/09/28 04:27:34;;;;;;;5.73;5.03;;;16.90;99.90;;;17.37;92.92;100693.31;4915560;29;20629;-68
2023/09/28 04:30:01;;;;;;;9.67;7.27;;;16.90;99.90;;;17.37;92.85;100701.22;4904502;29;20698;-69
2023/09/28 04:32:28;;;;;;;6.47;5.53;;;17.00;99.90;;;17.38;92.78;100701.06;4930225;29;20808;-71
2023/09/28 04:34:56;;;;;;;9.67;6.77;;;17.00;99.90;;;17.39;92.74;100712.47;4925726;29;20626;-67
2023/09/28 04:37:25;;;;;;;9.17;6.27;;;17.00;99.90;;;17.41;92.68;100715.78;4935073;29;20651;-68
2023/09/28 04:39:53;;;;;;;7.83;5.77;;;17.00;99.90;;;17.42;92.33;100717.44;4914390;29;20698;-69
2023/09/28 04:42:20;;;;;;;6.70;5.20;;;17.00;99.90;;;17.42;92.22;100706.88;4913967;29;20644;-68
2023/09/28 04:44:48;;;;;;;7.50;5.87;;;17.00;99.90;;;17.42;92.08;100712.16;4913163;29;21218;-69
2023/09/28 04:47:16;;;;;;;10.50;5.67;;;17.00;99.90;;;17.41;92.05;100715.78;4914913;29;20654;-68
2023/09/28 04:49:43;;;;;;;6.83;4.90;;;17.00;99.90;;;17.37;91.87;100709.16;4912015;29;20649;-68
2023/09/28 04:52:10;;;;;;;5.80;4.77;;;17.00;99.90;;;17.34;91.54;100701.53;4918124;29;21200;-68
2023/09/28 04:54:37;;;;;;;8.37;4.77;;;17.00;99.90;;;17.27;92.08;100716.31;4923604;29;20674;-68
2023/09/28 04:57:05;;;;;;;8.00;6.03;;;16.90;99.90;;;17.20;92.06;100720.53;4910267;29;20700;-68
2023/09/28 04:59:40;;;;;;;5.23;4.67;;;16.80;99.90;;;17.18;92.39;100730.41;4912181;29;20638;-69
2023/09/28 05:02:08;;;;;;;8.30;6.23;;;16.80;99.90;;;17.14;92.81;100739.59;4912894;29;20614;-70
2023/09/28 05:04:35;;;;;;;9.53;6.07;;;16.80;99.90;;;17.14;93.57;100742.22;4925323;29;20761;-68
2023/09/28 05:07:04;;;;;;;11.13;6.13;;;16.70;99.90;;;17.13;93.10;100737.91;4924550;29;21338;-69
2023/09/28 05:09:32;;;;;;;8.77;5.20;;;16.70;99.90;;;17.12;93.40;100738.91;4887139;29;20654;-69
2023/09/28 05:12:00;;;;;;;7.73;3.83;;;16.70;99.90;;;17.06;93.60;100737.69;4909997;29;20646;-69
2023/09/28 05:14:28;;;;;;;5.43;4.47;;;16.70;99.90;;;17.00;93.35;100743.53;4908630;29;20697;-69
2023/09/28 05:16:55;;;;;;;6.17;5.17;;;16.60;99.90;;;16.97;93.50;100749.13;4924620;29;21031;-69
2023/09/28 05:19:22;;;;;;;6.87;5.13;;;16.60;99.90;;;16.99;94.00;100758.53;4913447;29;20724;-70
2023/09/28 05:21:49;;;;;;;9.37;6.00;;;16.60;99.90;;;17.01;93.83;100763.66;4916153;29;20657;-68
2023/09/28 05:24:17;;;;;;;12.00;6.50;;;16.60;99.90;;;17.00;93.56;100756.72;4910176;29;21198;-70
2023/09/28 05:26:44;;;;;;;7.20;5.97;;;16.60;99.90;;;17.04;93.53;100751.00;4928928;29;20752;-69
2023/09/28 05:29:11;;;;;;;6.83;5.37;;;16.60;99.90;;;17.07;93.27;100749.91;4910926;29;20646;-69
2023/09/28 05:31:38;;;;;;;5.87;4.67;;;16.70;99.90;;;17.08;92.75;100747.09;4904888;29;20630;-68
2023/09/28 05:34:06;;;;;;;7.03;4.60;;;16.70;99.90;;;17.09;92.76;100745.31;4904836;29;20682;-69
2023/09/28 05:36:33;;;;;;;6.90;4.00;;;16.70;99.90;;;17.08;92.37;100751.53;4911735;29;21254;-69
2023/09/28 05:39:02;;;;;;;5.70;4.20;;;16.70;99.90;;;17.06;92.41;100758.75;4897733;29;20725;-69
2023/09/28 05:41:30;;;;;;;4.53;3.60;;;16.70;99.90;;;17.10;92.07;100767.22;4926258;29;20689;-69
2023/09/28 05:43:57;;;;;;;4.80;4.10;;;16.70;99.90;;;17.10;92.42;100769.88;4911691;29;21244;-69
2023/09/28 05:46:24;;;;;;;6.03;4.63;;;16.70;99.90;;;17.13;92.10;100774.81;4927964;29;20646;-69
2023/09/28 05:48:51;;;;;;;6.37;4.63;;;16.70;99.90;;;17.19;91.93;100782.13;4914207;29;21208;-69
2023/09/28 05:51:18;;;;;;;6.50;5.27;;;16.70;99.90;;;17.27;91.91;100787.50;4914254;29;20709;-70
2023/09/28 05:53:45;;;;;;;6.27;5.50;;;16.80;99.90;;;17.43;91.71;100791.13;4911602;29;20694;-69
2023/09/28 05:56:17;;;;;;;5.77;5.03;;;17.00;99.90;;;17.63;90.69;100795.31;4912994;29;20691;-69
2023/09/28 05:58:44;;;;;;;5.67;4.90;;;17.20;99.90;;;17.79;89.50;100790.19;4911594;29;21021;-68
2023/09/28 06:01:13;;;;;;;6.47;4.27;;;17.30;99.90;;;18.00;88.60;100787.19;4914223;29;20819;-69
2023/09/28 06:03:40;;;;;;;7.70;4.27;;;17.50;99.90;;;18.25;87.77;100802.22;4909633;29;20646;-70
2023/09/28 06:06:18;;;;;;;10.50;5.20;;;17.70;99.90;;;18.59;85.78;100799.66;4911587;29;20668;-67
2023/09/28 06:08:46;;;;;;;9.27;5.40;;;18.00;99.90;;;18.79;84.10;100794.94;4906006;29;20649;-68
2023/09/28 06:11:15;;;;;;;8.57;5.53;;;18.30;99.90;;;18.85;83.13;100802.22;4910812;29;20657;-68
2023/09/28 06:13:44;;;;;;;7.37;4.57;;;18.30;99.90;;;18.87;82.53;100808.22;4912520;29;21138;-69
2023/09/28 06:16:31;;;;;;;4.80;3.70;;;18.40;99.90;;;18.81;81.85;100816.75;4909281;29;20756;-67
2023/09/28 06:18:58;;;;;;;7.00;5.33;;;18.30;99.90;;;19.11;81.82;100818.88;4928746;29;20654;-68
2023/09/28 06:21:25;;;;;;;8.53;5.33;;;18.60;99.90;;;19.72;78.08;100816.69;4910979;29;21096;-68
2023/09/28 06:23:52;;;;;;;6.73;5.07;;;19.10;99.90;;;20.41;75.56;100807.41;4911453;29;20634;-68
2023/09/28 06:26:19;;;;;;;7.93;4.30;;;19.80;99.90;;;21.06;72.69;100811.50;4913663;29;20662;-69
2023/09/28 06:29:05;;;;;;;6.67;5.07;;;20.40;99.90;;;21.79;69.37;100814.53;4911516;29;20657;-68
2023/09/28 06:31:33;;;;;;;6.63;4.77;;;21.10;99.90;;;22.44;67.10;100806.00;4927902;29;20690;-69
2023/09/28 06:34:00;;;;;;;7.70;4.70;;;21.80;99.90;;;22.99;64.84;100801.03;4895548;29;21052;-68
2023/09/28 06:36:29;;;;;;;6.03;4.83;;;22.30;99.90;;;23.47;61.94;100799.56;4909200;29;20658;-69
2023/09/28 06:38:59;;;;;;;5.20;4.53;;;22.80;99.90;;;23.86;61.17;100802.59;4917786;29;20653;-69
2023/09/28 06:41:26;;;;;;;6.40;5.30;;;23.20;99.90;;;24.34;58.96;100808.94;4926579;29;20633;-69
2023/09/28 06:43:53;;;;;;;5.27;4.57;;;23.70;99.90;;;24.53;56.79;100822.38;4910220;29;20685;-68
2023/09/28 06:46:21;;;;;;;5.10;4.60;;;24.00;99.90;;;24.44;57.06;100820.91;4914040;29;20698;-68
2023/09/28 06:48:49;;;;;;;9.00;5.40;;;24.00;99.90;;;24.23;58.06;100814.81;4912497;29;20634;-66
2023/09/28 06:51:17;;;;;;;6.70;4.80;;;23.70;99.90;;;24.21;57.50;100822.19;4922655;29;21583;-68
2023/09/28 06:53:44;;;;;;;4.70;4.27;;;23.70;99.90;;;24.42;57.10;100822.97;4902014;29;20673;-68
2023/09/28 06:56:12;;;;;;;5.60;3.93;;;23.80;99.90;;;24.83;56.00;100833.66;4921840;29;20661;-69
2023/09/28 06:58:41;;;;;;;6.03;4.87;;;24.20;99.90;;;25.12;55.26;100840.59;4904197;29;20753;-68
2023/09/28 07:01:09;;;;;;;6.57;4.53;;;24.50;99.90;;;25.40;54.17;100822.63;4923472;29;21378;-67
2023/09/28 07:03:36;;;;;;;5.80;4.43;;;24.80;99.90;;;25.70;53.53;100821.28;4911311;29;20645;-68
2023/09/28 07:06:05;;;;;;;4.40;4.00;;;25.20;99.90;;;26.02;51.59;100827.66;4926146;29;20705;-68
2023/09/28 07:08:32;;;;;;;8.43;4.20;;;25.50;99.90;;;26.09;51.99;100823.97;4921530;29;21621;-69
2023/09/28 07:11:00;;;;;;;4.40;4.00;;;25.60;99.90;;;26.29;51.43;100813.25;4922244;29;20634;-69
2023/09/28 07:13:27;;;;;;;10.17;4.30;;;25.90;99.90;;;26.51;50.62;100832.59;4924724;29;20646;-68
2023/09/28 07:15:57;;;;;;;4.50;3.90;;;26.20;99.90;;;26.68;50.22;100836.47;4912275;29;20682;-69
2023/09/28 07:18:25;;;;;;;7.30;5.07;;;26.40;99.80;;;26.76;50.27;100833.56;4891766;29;21206;-69
2023/09/28 07:20:53;;;;;;;4.57;3.80;;;26.50;99.40;;;26.97;49.54;100837.81;4904030;29;20627;-68
2023/09/28 07:23:20;;;;;;;4.90;4.27;;;26.80;98.90;;;27.26;49.26;100848.03;4910958;29;20721;-69
2023/09/28 07:25:50;;;;;;;4.53;4.13;;;27.10;98.30;;;27.66;47.28;100844.91;4912755;29;20725;-68
2023/09/28 07:28:17;;;;;;;4.70;4.30;;;27.50;97.30;;;27.79;47.10;100844.00;4911064;29;20652;-70
2023/09/28 07:30:44;;;;;;;3.57;3.30;;;27.80;96.40;;;27.99;45.96;100842.03;4926446;29;20751;-67
2023/09/28 07:33:15;;;;;;;4.70;4.30;;;28.10;95.30;;;28.32;45.31;100842.56;4911802;29;20722;-68
2023/09/28 07:35:44;;;;;;;4.50;4.10;;;28.40;94.70;;;29.00;44.66;100831.75;4904905;29;21259;-69
2023/09/28 07:38:11;;;;;;;4.93;4.03;;;29.00;93.90;;;29.51;42.76;100850.13;4924217;29;20673;-67
2023/09/28 07:40:38;;;;;;;3.83;3.40;;;29.50;92.50;;;29.88;42.19;100857.00;4923698;29;20655;-68
2023/09/28 07:43:14;;;;;;;4.80;4.40;;;29.90;91.40;;;30.07;41.64;100847.81;4920407;29;21048;-70
2023/09/28 07:45:42;;;;;;;4.70;4.03;;;30.10;90.20;;;30.17;41.51;100847.25;4924594;29;20666;-69
2023/09/28 07:48:09;;;;;;;5.30;3.93;;;30.10;89.90;;;30.37;41.17;100850.44;4926425;29;20681;-68
2023/09/28 07:50:37;;;;;;;4.57;4.00;;;30.30;88.90;;;30.69;40.32;100850.91;4910767;29;20630;-68
2023/09/28 07:53:05;;;;;;;4.40;4.00;;;30.60;87.00;;;30.81;40.16;100870.56;4909817;29;20724;-68
2023/09/28 07:55:32;;;;;;;4.67;4.00;;;30.80;85.50;;;31.00;39.97;100878.28;4903244;29;20741;-68
2023/09/28 07:57:59;;;;;;;4.10;3.80;;;31.10;84.30;;;31.46;39.19;100882.72;4909313;29;21234;-69
2023/09/28 08:00:47;;;;;;;4.13;3.83;;;31.50;82.90;;;31.55;38.81;100883.97;4902101;29;20626;-69
2023/09/28 08:03:14;;;;;;;3.80;3.50;;;31.70;81.30;;;31.70;38.53;100883.44;4908249;29;20733;-69
2023/09/28 08:05:41;;;;;;;4.20;3.87;;;31.80;80.10;;;32.08;37.63;100872.78;4923910;29;20661;-66
2023/09/28 08:08:08;;;;;;;4.23;3.93;;;32.20;79.10;;;32.40;37.77;100865.75;4920145;29;20696;-68
2023/09/28 08:10:43;;;;;;;3.90;3.60;;;32.50;77.80;;;32.56;37.06;100872.22;4909451;29;20680;-69
2023/09/28 08:13:10;;;;;;;4.10;3.80;;;32.60;77.50;;;32.73;36.51;100870.31;4926005;29;21213;-71
2023/09/28 08:15:41;;;;;;;4.87;4.47;;;32.80;75.50;;;32.95;36.48;100863.00;4927474;29;20696;-70
2023/09/28 08:18:11;;;;;;;4.57;4.13;;;33.00;74.60;;;33.32;36.04;100869.44;4911452;29;20649;-68
2023/09/28 08:20:38;;;;;;;4.53;4.13;;;33.30;73.80;;;33.74;35.34;100863.38;4896529;29;20618;-68
2023/09/28 08:23:11;;;;;;;4.53;4.17;;;33.60;73.10;;;33.85;34.99;100862.41;4927709;29;20705;-69
2023/09/28 08:25:38;;;;;;;3.93;3.60;;;33.70;72.20;;;34.02;34.60;100866.66;4915200;29;21064;-69
2023/09/28 08:28:06;;;;;;;4.47;4.07;;;33.70;71.80;;;33.87;35.49;100863.78;4911878;29;21040;-69
2023/09/28 08:30:33;;;;;;;4.27;3.90;;;33.60;71.30;;;33.68;35.15;100859.81;4913811;29;20637;-70
2023/09/28 08:33:00;;;;;;;7.73;6.93;;;33.60;71.00;;;33.83;35.43;100859.97;4909616;29;20630;-69
2023/09/28 08:35:29;;;;;;;9.33;7.43;;;33.90;71.00;;;34.28;35.01;100870.38;4905532;29;20692;-68
2023/09/28 08:37:56;;;;;;;5.47;4.97;;;34.30;69.90;;;35.17;33.38;100878.47;4907697;29;20627;-74
2023/09/28 08:40:24;;;;;;;3.60;3.30;;;35.10;68.40;;;36.04;31.97;100873.78;4910294;29;20733;-75
2023/09/28 08:42:53;;;;;;;11.93;4.50;;;36.00;66.60;;;36.78;30.69;100884.03;4906363;29;20654;-74
2023/09/28 08:45:21;;;;;;;3.90;3.70;;;36.70;64.70;;;37.60;29.74;100884.19;4909691;29;20729;-70
2023/09/28 08:47:49;;;;;;;3.53;3.33;;;37.50;62.40;;;38.42;29.09;100879.75;4920769;29;20649;-70
2023/09/28 08:50:24;;;;;;;4.20;3.33;;;38.30;60.70;;;39.11;27.47;100879.22;4913440;29;20625;-70
2023/09/28 08:52:53;;;;;;;3.93;3.73;;;39.20;58.40;;;39.84;nan;100880.38;4910819;29;20642;-70
2023/09/28 08:55:21;;;;;;;3.70;3.43;;;39.70;57.40;;;40.50;nan;100884.72;4913540;29;20680;-68
2023/09/28 08:57:48;;;;;;;3.40;3.20;;;40.30;55.70;;;41.18;nan;100885.53;4913864;29;21199;-69
2023/09/28 09:00:22;;;;;;;3.83;3.53;;;40.90;54.60;;;41.67;nan;100881.97;4910287;29;20661;-69
2023/09/28 09:02:52;;;;;;;3.83;3.53;;;41.50;53.00;;;42.08;nan;100885.38;4923029;29;21062;-70
2023/09/28 09:05:20;;;;;;;3.80;3.60;;;42.00;52.00;;;42.28;nan;100887.56;4928993;29;20716;-70
2023/09/28 09:07:49;;;;;;;3.70;3.50;;;42.30;51.40;;;42.63;nan;100882.25;4912776;29;20684;-70
2023/09/28 09:10:21;;;;;;;3.87;3.77;;;42.60;50.80;;;42.63;nan;100888.56;4913222;29;20682;-70
2023/09/28 09:12:48;;;;;;;3.30;3.20;;;42.80;49.90;;;42.65;nan;100888.22;4914053;29;20640;-69
2023/09/28 09:15:17;;;;;;;3.70;3.50;;;42.80;49.10;;;42.89;nan;100888.66;4912526;29;20690;-70
2023/09/28 09:17:44;;;;;;;3.97;3.77;;;42.90;49.10;;;43.36;nan;100890.53;4912477;29;20640;-69
2023/09/28 09:20:12;;;;;;;3.07;2.97;;;43.30;48.80;;;43.76;nan;100889.28;4914608;29;21217;-70
2023/09/28 09:22:40;;;;;;;3.27;3.17;;;43.70;48.10;;;43.73;nan;100889.09;4912949;29;21217;-69
2023/09/28 09:25:24;;;;;;;3.50;3.30;;;43.80;47.50;;;43.12;nan;100879.19;4914733;29;21004;-71
2023/09/28 09:27:52;;;;;;;3.30;3.10;;;43.30;47.30;;;42.43;nan;100873.44;4914551;29;20643;-70
2023/09/28 09:30:20;;;;;;;4.70;3.80;;;42.40;47.80;;;41.39;nan;100870.28;4910584;29;20651;-70
2023/09/28 09:32:47;;;;;;;3.33;3.10;;;41.20;48.70;;;39.93;nan;100864.91;4899829;29;20666;-69
2023/09/28 09:35:16;;;;;;;3.90;3.50;;;39.70;50.20;;;38.18;nan;100860.59;4925451;29;20677;-67
2023/09/28 09:37:53;;;;;;;11.30;3.60;;;37.90;51.40;;;36.59;nan;100857.41;4911930;29;20638;-69
2023/09/28 09:40:21;;;;;;;4.33;3.80;;;36.30;53.50;;;35.18;nan;100848.38;4913560;29;20626;-68
2023/09/28 09:42:49;;;;;;;4.43;4.07;;;34.80;55.00;;;33.81;nan;100842.34;4922542;29;20702;-68
2023/09/28 09:45:19;;;;;;;3.87;3.50;;;33.50;57.10;;;32.69;nan;100847.56;4924851;29;21215;-69
2023/09/28 09:47:49;;;;;;;4.37;3.77;;;32.40;59.30;;;31.66;nan;100849.91;4911077;29;20668;-68
2023/09/28 09:50:17;;;;;;;4.93;4.43;;;31.30;60.50;;;30.77;nan;100835.19;4912171;29;20642;-69
2023/09/28 09:52:45;;;;;;;3.70;3.40;;;30.40;62.50;;;30.20;nan;100838.72;4910891;29;20637;-67
2023/09/28 09:55:12;;;;;;;5.50;4.03;;;29.80;64.50;;;29.62;nan;100842.06;4905727;29;20681;-68
2023/09/28 09:57:47;;;;;;;4.00;3.67;;;29.20;66.20;;;29.11;nan;100834.47;4910930;29;20645;-68
2023/09/28 10:00:19;;;;;;;4.40;4.00;;;28.60;67.00;;;28.73;nan;100844.66;4904298;29;20717;-70
2023/09/28 10:02:49;;;;;;;7.77;3.70;;;28.20;68.50;;;28.32;nan;100844.44;4921602;29;21018;-69
2023/09/28 10:05:19;;;;;;;3.47;2.97;;;27.80;69.60;;;28.06;nan;100841.97;4906570;29;21031;-69
2023/09/28 10:07:48;;;;;;;4.03;3.67;;;27.50;70.80;;;27.84;nan;100844.16;4909620;29;21205;-70
2023/09/28 10:10:15;;;;;;;4.20;3.37;;;27.30;72.30;;;27.68;nan;100836.66;4907126;29;20649;-68
2023/09/28 10:12:42;;;;;;;3.87;3.50;;;27.10;72.80;;;27.63;nan;100831.94;4923950;29;20673;-71
2023/09/28 10:15:10;;;;;;;4.30;3.80;;;27.00;73.90;;;27.65;nan;100831.72;4906344;29;20683;-67
2023/09/28 10:17:37;;;;;;;9.30;3.83;;;27.10;74.30;;;27.82;nan;100838.22;4922947;29;21297;-68
2023/09/28 10:20:07;;;;;;;4.20;3.63;;;27.30;74.20;;;28.21;nan;100842.47;4911767;29;20637;-69
2023/09/28 10:22:34;;;;;;;4.90;4.00;;;27.70;73.70;;;28.61;nan;100840.25;4910141;29;20642;-70